Time;durP1;ratioP1;P1;durP2;ratioP2;P2;SDS_P1;SDS_P2;PMS_P1;PMS_P2;Temp;Humidity;BMP_temperature;BMP_pressure;BME280_temperature;BME280_humidity;BME280_pressure;Samples;Min_cycle;Max_cycle;Signal;HPM_P1;HPM_P2
2022/05/17 00:03:55;;;;;;;0.65;0.30;;;;;;;22.06;37.99;101934.75;16144308;19;130696;-49
2022/05/17 00:09:17;;;;;;;0.50;0.30;;;;;;;22.05;38.28;101933.06;16139353;19;130883;-52
2022/05/17 00:14:39;;;;;;;1.20;0.30;;;;;;;22.04;37.97;101925.78;16139711;19;129258;-50
2022/05/17 00:20:01;;;;;;;1.58;0.40;;;;;;;22.04;37.99;101927.75;16141843;19;130668;-51
2022/05/17 00:25:24;;;;;;;1.33;0.30;;;;;;;22.03;37.80;101920.47;16142249;19;129997;-52
2022/05/17 00:30:47;;;;;;;0.32;0.17;;;;;;;22.03;38.25;101912.13;16138681;19;130170;-50
2022/05/17 00:36:09;;;;;;;1.80;0.43;;;;;;;22.01;37.95;101929.09;16141714;19;130133;-47
2022/05/17 00:41:31;;;;;;;1.77;0.28;;;;;;;22.00;38.27;101910.69;16139289;19;130522;-50
2022/05/17 00:46:55;;;;;;;1.27;0.30;;;;;;;21.98;37.81;101910.91;16138383;19;129456;-49
2022/05/17 00:52:31;;;;;;;0.40;0.17;;;;;;;21.98;38.03;101907.28;16135064;19;130515;-54
2022/05/17 00:58:01;;;;;;;2.85;0.30;;;;;;;21.99;38.10;101903.41;16140504;19;129363;-52
2022/05/17 01:03:24;;;;;;;1.25;0.35;;;;;;;21.97;38.21;101911.16;16140493;19;130905;-50
2022/05/17 01:08:47;;;;;;;0.65;0.22;;;;;;;21.96;37.98;101903.91;16137804;19;130117;-51
2022/05/17 01:19:51;;;;;;;0.20;0.20;;;;;;;21.95;38.30;101899.41;16134000;19;129269;-50
2022/05/17 01:25:13;;;;;;;1.75;0.35;;;;;;;21.94;37.86;101892.16;16138801;19;129962;-52
2022/05/17 01:30:36;;;;;;;0.30;0.20;;;;;;;21.94;38.19;101895.78;16134677;19;130837;-51
2022/05/17 01:35:59;;;;;;;0.65;0.38;;;;;;;21.93;38.06;101896.88;16138032;19;130812;-51
2022/05/17 01:41:21;;;;;;;0.47;0.22;;;;;;;21.93;38.00;101898.81;16136163;19;130239;-52
2022/05/17 01:46:43;;;;;;;0.77;0.30;;;;;;;21.91;38.06;101887.91;16136793;19;130731;-49
2022/05/17 01:52:05;;;;;;;0.38;0.28;;;;;;;21.91;38.13;101887.09;16132496;19;130156;-53
2022/05/17 01:57:27;;;;;;;1.67;0.30;;;;;;;21.90;37.84;101888.19;16137267;19;130118;-52
2022/05/17 02:02:53;;;;;;;0.60;0.20;;;;;;;21.89;38.20;101870.59;16135853;19;129960;-49
2022/05/17 02:08:15;;;;;;;1.65;0.20;;;;;;;21.88;37.89;101851.34;16136803;19;129782;-51
2022/05/17 02:13:41;;;;;;;0.28;0.17;;;;;;;21.88;38.31;101862.50;16131988;19;130621;-54
2022/05/17 02:19:05;;;;;;;1.52;0.20;;;;;;;21.87;38.34;101874.72;16130264;19;130606;-51
2022/05/17 02:24:27;;;;;;;1.38;0.20;;;;;;;21.87;37.88;101888.66;16134062;19;130503;-49
2022/05/17 02:29:49;;;;;;;0.13;0.13;;;;;;;21.87;37.80;101885.88;16134419;19;129806;-48
2022/05/17 02:35:15;;;;;;;0.50;0.20;;;;;;;21.86;38.03;101886.97;16131041;19;130229;-53
2022/05/17 02:40:37;;;;;;;0.85;0.20;;;;;;;21.85;38.30;101893.63;16132540;19;130609;-54
2022/05/17 02:45:59;;;;;;;0.20;0.20;;;;;;;21.85;37.89;101894.47;16132967;19;130302;-54
2022/05/17 02:51:21;;;;;;;0.85;0.20;;;;;;;21.84;37.80;101892.78;16129611;19;130403;-52
2022/05/17 02:56:43;;;;;;;0.68;0.20;;;;;;;21.83;37.98;101902.25;16134339;19;130221;-51
2022/05/17 03:02:05;;;;;;;0.70;0.30;;;;;;;21.82;38.12;101898.59;16131819;19;130810;-50
2022/05/17 03:07:26;;;;;;;1.23;0.20;;;;;;;21.82;38.19;101904.16;16124007;19;130567;-53
2022/05/17 03:12:48;;;;;;;1.52;0.30;;;;;;;21.81;38.33;101899.69;16124296;19;130225;-52
2022/05/17 03:18:10;;;;;;;1.08;0.30;;;;;;;21.81;37.81;101896.88;16125952;19;129926;-52
2022/05/17 03:23:33;;;;;;;0.17;0.05;;;;;;;21.80;38.20;101900.75;16131407;19;129825;-54
2022/05/17 03:28:56;;;;;;;0.88;0.22;;;;;;;21.79;37.84;101914.94;16129296;19;130608;-53
2022/05/17 03:34:18;;;;;;;0.43;0.20;;;;;;;21.79;38.05;101923.31;16130757;19;129766;-51
2022/05/17 03:39:40;;;;;;;0.30;0.20;;;;;;;21.78;38.10;101916.91;16129754;19;130159;-53
2022/05/17 03:45:03;;;;;;;0.43;0.25;;;;;;;21.77;37.87;101918.00;16130808;19;130663;-52
2022/05/17 03:50:24;;;;;;;2.55;0.32;;;;;;;21.77;38.08;101918.00;16125267;19;130040;-54
2022/05/17 03:55:46;;;;;;;0.85;0.10;;;;;;;21.76;37.84;101916.28;16131456;19;129676;-54
2022/05/17 04:01:08;;;;;;;0.10;0.10;;;;;;;21.76;38.15;101915.44;16129842;19;131008;-53
2022/05/17 04:06:30;;;;;;;0.30;0.20;;;;;;;21.75;38.06;101909.03;16131938;19;129889;-54
2022/05/17 04:11:52;;;;;;;1.17;0.28;;;;;;;21.75;38.17;101903.44;16125925;19;130098;-54
2022/05/17 04:17:14;;;;;;;1.60;0.40;;;;;;;21.74;37.86;101898.97;16128019;19;130292;-54
2022/05/17 04:22:36;;;;;;;0.60;0.20;;;;;;;21.74;38.12;101901.75;16145658;19;131347;-54
2022/05/17 04:27:57;;;;;;;1.42;0.30;;;;;;;21.74;38.17;101907.31;16146296;19;130142;-55
2022/05/17 04:33:19;;;;;;;0.40;0.20;;;;;;;21.73;38.18;101915.91;16140683;19;130139;-54
2022/05/17 04:38:41;;;;;;;0.40;0.20;;;;;;;21.72;38.17;101915.06;16144684;19;130707;-54
2022/05/17 04:44:03;;;;;;;0.52;0.20;;;;;;;21.72;38.13;101925.38;16143247;19;131645;-53
2022/05/17 04:49:25;;;;;;;0.63;0.30;;;;;;;21.71;38.24;101935.66;16140209;19;129980;-53
2022/05/17 04:54:47;;;;;;;0.50;0.20;;;;;;;21.72;38.38;101930.94;16141432;19;129942;-52
2022/05/17 05:00:12;;;;;;;0.60;0.20;;;;;;;21.71;37.94;101941.22;16141427;19;130193;-51
2022/05/17 05:05:34;;;;;;;1.45;0.35;;;;;;;21.71;38.15;101944.00;16140019;19;129950;-50
2022/05/17 05:10:56;;;;;;;1.52;0.40;;;;;;;21.70;38.12;101950.66;16137934;19;130106;-50
2022/05/17 05:16:18;;;;;;;1.08;0.20;;;;;;;21.69;38.30;101943.41;16138256;19;129314;-52
2022/05/17 05:21:39;;;;;;;0.82;0.20;;;;;;;21.69;38.21;101939.78;16137655;19;130405;-51
2022/05/17 05:27:01;;;;;;;1.55;0.43;;;;;;;21.68;37.91;101938.91;16135897;19;130429;-49
2022/05/17 05:32:23;;;;;;;0.80;0.30;;;;;;;21.67;38.27;101957.59;16130305;19;130710;-51
2022/05/17 05:37:46;;;;;;;12.32;0.82;;;;;;;21.65;38.27;101956.97;16138317;19;129785;-50
2022/05/17 05:43:08;;;;;;;8.23;1.02;;;;;;;21.66;38.50;101961.47;16135122;19;130037;-52
2022/05/17 05:48:30;;;;;;;14.07;1.00;;;;;;;21.67;38.58;101959.50;16138527;19;130798;-50
2022/05/17 05:53:51;;;;;;;9.30;1.35;;;;;;;21.68;38.60;101952.84;16137322;19;129792;-49
2022/05/17 05:59:13;;;;;;;5.25;1.35;;;;;;;21.68;38.30;101947.28;16136955;19;129778;-52
2022/05/17 06:04:35;;;;;;;5.03;1.30;;;;;;;21.68;38.91;101964.00;16132654;19;129974;-51
2022/05/17 06:09:57;;;;;;;2.40;1.00;;;;;;;21.69;38.67;101962.91;16127542;19;129603;-49
2022/05/17 06:15:19;;;;;;;2.83;1.10;;;;;;;21.67;38.82;101968.72;16124191;19;130470;-52
2022/05/17 06:20:49;;;;;;;4.95;1.40;;;;;;;21.69;39.01;101970.41;16125648;19;129585;-48
2022/05/17 06:26:11;;;;;;;7.40;0.95;;;;;;;21.69;38.93;101973.22;16130124;19;129627;-50
2022/05/17 06:31:34;;;;;;;9.65;1.30;;;;;;;21.69;38.63;101971.25;16132175;19;130475;-50
2022/05/17 06:36:55;;;;;;;4.68;0.98;;;;;;;21.69;38.86;101962.91;16133380;19;129260;-50
2022/05/17 06:42:17;;;;;;;6.97;1.20;;;;;;;21.70;38.81;101961.81;16133936;19;130054;-52
2022/05/17 06:47:40;;;;;;;6.53;1.33;;;;;;;21.71;38.59;101977.44;16132650;19;129926;-51
2022/05/17 06:53:03;;;;;;;6.82;1.00;;;;;;;21.70;38.69;101981.31;16129957;19;130003;-53
2022/05/17 06:58:28;;;;;;;5.88;0.82;;;;;;;21.70;38.94;101978.53;16133556;19;130580;-49
2022/05/17 07:03:51;;;;;;;6.93;1.10;;;;;;;21.71;38.87;101987.75;16135383;19;129896;-48
2022/05/17 07:09:12;;;;;;;4.07;1.08;;;;;;;21.69;38.90;101982.41;16133332;19;129825;-48
2022/05/17 07:14:37;;;;;;;11.65;1.50;;;;;;;21.69;38.63;101993.53;16133912;19;130655;-51
2022/05/17 07:20:01;;;;;;;3.93;1.20;;;;;;;21.69;39.15;102010.25;16128827;19;129880;-52
2022/05/17 07:25:23;;;;;;;2.97;0.90;;;;;;;21.69;38.86;102007.47;16129824;19;130300;-48
2022/05/17 07:30:46;;;;;;;4.70;0.90;;;;;;;21.69;38.91;101999.09;16133316;19;129445;-51
2022/05/17 07:36:08;;;;;;;4.45;0.90;;;;;;;21.69;38.60;101990.75;16126686;19;129829;-53
2022/05/17 07:41:31;;;;;;;2.83;0.88;;;;;;;21.70;38.88;101995.22;16136782;19;129502;-52
2022/05/17 07:46:53;;;;;;;4.13;0.93;;;;;;;21.70;39.13;101989.66;16130745;19;129787;-51
2022/05/17 07:52:15;;;;;;;4.53;1.15;;;;;;;21.70;38.79;101984.09;16114096;19;129521;-52
2022/05/17 07:57:38;;;;;;;3.42;0.93;;;;;;;21.70;38.60;101991.63;16133327;19;130046;-51
2022/05/17 08:03:00;;;;;;;6.07;1.25;;;;;;;21.69;38.81;101996.31;16134131;19;131110;-47
2022/05/17 08:08:22;;;;;;;7.57;1.30;;;;;;;21.69;38.73;101990.75;16151756;19;129558;-50
2022/05/17 08:13:44;;;;;;;1.20;0.88;;;;;;;21.69;38.97;101990.75;16141983;19;129186;-49
2022/05/17 08:19:25;;;;;;;4.38;0.90;;;;;;;21.70;38.93;101995.22;16143266;19;130692;-50
2022/05/17 08:30:28;;;;;;;2.47;0.88;;;;;;;21.72;38.63;102001.41;16148241;19;129339;-53
2022/05/17 08:35:58;;;;;;;6.57;1.00;;;;;;;21.74;38.92;101996.47;16150506;19;129577;-50
2022/05/17 08:41:24;;;;;;;3.85;1.00;;;;;;;21.75;38.89;102003.72;16150872;19;129159;-52
2022/05/17 08:47:05;;;;;;;2.50;0.90;;;;;;;21.77;38.91;101990.41;16144757;19;129026;-53
2022/05/17 08:52:47;;;;;;;2.33;0.77;;;;;;;21.78;38.88;101991.25;16147247;19;129055;-51
2022/05/17 08:58:18;;;;;;;2.38;0.80;;;;;;;21.79;38.86;101985.41;16148684;19;129611;-52
2022/05/17 09:03:52;;;;;;;1.50;0.77;;;;;;;21.80;39.27;101978.75;16147538;19;129636;-51
2022/05/17 09:09:18;;;;;;;2.35;0.70;;;;;;;21.79;39.15;101977.06;16148080;19;129148;-51
2022/05/17 09:14:47;;;;;;;1.80;0.60;;;;;;;21.81;39.08;101980.47;16146590;19;129452;-50
2022/05/17 09:20:09;;;;;;;5.47;0.80;;;;;;;21.82;38.81;101973.78;16148552;19;129413;-52
2022/05/17 09:25:57;;;;;;;2.90;1.13;;;;;;;21.86;39.39;101970.53;16142172;19;129596;-54
2022/05/17 09:31:22;;;;;;;1.88;0.75;;;;;;;21.86;39.11;101956.59;16145680;19;129289;-50
2022/05/17 09:36:52;;;;;;;5.23;1.67;;;;;;;21.89;39.50;101947.78;16146358;19;129189;-50
2022/05/17 09:42:27;;;;;;;2.15;0.80;;;;;;;21.91;39.10;101951.16;16145703;19;129392;-53
2022/05/17 09:47:56;;;;;;;2.22;0.80;;;;;;;21.93;39.35;101937.81;16145916;19;129657;-51
2022/05/17 09:53:21;;;;;;;4.30;1.00;;;;;;;21.95;39.53;101938.41;16143212;19;129461;-52
2022/05/17 09:58:45;;;;;;;2.33;0.90;;;;;;;22.00;39.41;101935.75;16146324;19;129530;-53
2022/05/17 10:04:19;;;;;;;3.47;0.80;;;;;;;22.02;39.23;101936.38;16140531;19;129192;-50
2022/05/17 10:09:40;;;;;;;4.25;0.80;;;;;;;22.04;39.37;101931.38;16145121;19;129305;-53
2022/05/17 10:15:09;;;;;;;2.35;0.90;;;;;;;22.09;39.24;101920.34;16144062;19;130273;-52
2022/05/17 10:20:45;;;;;;;2.92;0.93;;;;;;;22.12;39.67;101908.72;16143757;19;129091;-50
2022/05/17 10:26:22;;;;;;;3.72;1.00;;;;;;;22.15;39.57;101907.38;16143609;19;129242;-49
2022/05/17 10:31:52;;;;;;;3.08;1.00;;;;;;;22.17;39.70;101893.16;16142334;19;129221;-51
2022/05/17 10:37:23;;;;;;;2.97;0.90;;;;;;;22.19;39.78;101899.34;16143746;19;128900;-50
2022/05/17 10:42:45;;;;;;;4.00;0.88;;;;;;;22.22;39.43;101890.53;16138092;19;128756;-51
2022/05/17 10:48:35;;;;;;;2.05;0.68;;;;;;;22.26;39.75;101891.75;16143371;19;130033;-50
2022/05/17 10:54:38;;;;;;;3.38;1.00;;;;;;;22.28;39.53;101881.16;16138823;19;128977;-52
2022/05/17 11:00:19;;;;;;;2.70;0.80;;;;;;;22.31;39.86;101871.47;16144782;19;131124;-49
2022/05/17 11:06:32;;;;;;;2.83;0.80;;;;;;;22.34;39.98;101871.00;16141081;19;128983;-49
2022/05/17 11:12:09;;;;;;;1.75;0.82;;;;;;;22.35;40.28;101861.50;16130693;19;129480;-49
2022/05/17 11:17:44;;;;;;;5.93;1.20;;;;;;;22.35;40.15;101856.78;16129583;19;129094;-48
2022/05/17 11:23:11;;;;;;;8.23;1.33;;;;;;;22.37;40.25;101848.16;16132622;19;131127;-53
2022/05/17 11:28:53;;;;;;;12.02;2.85;;;;;;;22.40;41.19;101840.16;16135479;19;129552;-52
2022/05/17 11:34:33;;;;;;;11.63;2.50;;;;;;;22.43;41.29;101836.88;16143440;19;129404;-51
2022/05/17 11:39:56;;;;;;;7.00;2.92;;;;;;;22.45;41.43;101822.69;16146981;19;129330;-52
2022/05/17 11:45:17;;;;;;;5.50;2.70;;;;;;;22.47;41.88;101805.69;16148733;19;129045;-52
2022/05/17 11:50:39;;;;;;;12.55;3.55;;;;;;;22.50;41.67;101803.25;16153766;19;130163;-47
2022/05/17 11:56:25;;;;;;;8.27;3.20;;;;;;;22.54;42.15;101809.16;16152083;19;130328;-53
2022/05/17 12:01:50;;;;;;;12.93;3.30;;;;;;;22.54;42.11;101787.72;16151227;19;129617;-54
2022/05/17 12:07:28;;;;;;;9.52;3.30;;;;;;;22.59;42.53;101770.22;16153391;19;129629;-54
2022/05/17 12:13:07;;;;;;;10.35;3.47;;;;;;;22.59;42.15;101773.00;16146931;19;129847;-52
2022/05/17 12:18:44;;;;;;;8.15;3.20;;;;;;;22.60;42.38;101769.13;16146321;19;129248;-52
2022/05/17 12:24:45;;;;;;;9.57;3.00;;;;;;;22.62;42.49;101766.94;16149743;19;130371;-50
2022/05/17 12:36:25;;;;;;;9.00;3.60;;;;;;;22.66;42.61;101754.16;16149032;19;130073;-47
2022/05/17 12:47:41;;;;;;;20.27;4.30;;;;;;;22.72;42.69;101746.72;16150054;19;129702;-49
2022/05/17 12:53:12;;;;;;;10.98;3.90;;;;;;;22.74;42.15;101733.34;16148174;19;129349;-52
2022/05/17 12:58:57;;;;;;;10.93;3.45;;;;;;;22.75;42.28;101726.69;16148081;19;131139;-53
2022/05/17 13:04:33;;;;;;;7.50;3.28;;;;;;;22.75;42.33;101723.88;16150506;19;129362;-51
2022/05/17 13:10:00;;;;;;;6.82;3.47;;;;;;;22.78;42.48;101722.53;16149380;19;129893;-53
2022/05/17 13:15:23;;;;;;;9.43;3.20;;;;;;;22.80;42.05;101717.53;16140646;19;129578;-49
2022/05/17 13:20:49;;;;;;;8.23;2.97;;;;;;;22.81;41.97;101699.69;16146560;19;130664;-49
2022/05/17 13:26:13;;;;;;;6.68;3.00;;;;;;;22.82;41.92;101705.03;16147513;19;129453;-49
2022/05/17 13:31:35;;;;;;;9.77;2.78;;;;;;;22.83;41.74;101700.31;16142793;19;128891;-53
2022/05/17 13:37:04;;;;;;;5.90;2.15;;;;;;;22.87;41.17;101701.47;16145741;19;129412;-53
2022/05/17 13:42:28;;;;;;;6.72;2.10;;;;;;;22.87;40.58;101688.38;16146533;19;129252;-52
2022/05/17 13:47:50;;;;;;;6.43;1.95;;;;;;;22.89;39.87;101696.50;16144031;19;128997;-49
2022/05/17 13:53:11;;;;;;;3.72;1.77;;;;;;;22.89;38.86;101677.78;16139403;19;129289;-47
2022/05/17 13:58:35;;;;;;;2.70;1.50;;;;;;;22.89;38.57;101676.97;16144062;19;129608;-51
2022/05/17 14:04:13;;;;;;;4.82;1.60;;;;;;;22.91;37.72;101674.78;16143797;19;130253;-51
2022/05/17 14:15:16;;;;;;;3.00;1.38;;;;;;;22.88;35.70;101664.13;16139030;19;131548;-51
2022/05/17 14:20:38;;;;;;;6.85;1.30;;;;;;;22.89;34.69;101663.00;16144921;19;128890;-52
2022/05/17 14:26:00;;;;;;;2.67;0.90;;;;;;;22.89;34.28;101663.00;16144793;19;129093;-50
2022/05/17 14:31:26;;;;;;;4.63;1.05;;;;;;;22.88;33.62;101658.53;16142875;19;129460;-50
2022/05/17 14:36:48;;;;;;;2.08;0.80;;;;;;;22.92;32.82;101659.72;16138255;19;129018;-50
2022/05/17 14:42:13;;;;;;;3.50;1.00;;;;;;;22.95;32.32;101663.97;16139790;19;130213;-53
2022/05/17 14:47:36;;;;;;;;;;;;;;;22.96;31.24;101660.03;16142601;19;129232;-50
2022/05/17 14:52:58;;;;;;;1.45;0.50;;;;;;;23.00;31.59;101650.91;16139320;19;129046;-52
2022/05/17 14:58:20;;;;;;;2.47;0.70;;;;;;;23.04;30.97;101642.88;16140243;19;128754;-49
2022/05/17 15:03:50;;;;;;;3.70;1.30;;;;;;;23.06;30.91;101637.88;16139882;19;129477;-54
2022/05/17 15:09:12;;;;;;;8.50;0.98;;;;;;;23.09;31.01;101642.09;16140195;19;129758;-51
2022/05/17 15:14:34;;;;;;;3.80;0.70;;;;;;;23.12;30.27;101633.19;16133096;19;130293;-52
2022/05/17 15:19:57;;;;;;;6.03;1.10;;;;;;;23.14;30.22;101629.03;16132832;19;128926;-54
2022/05/17 15:25:21;;;;;;;5.15;0.93;;;;;;;23.16;30.31;101631.56;16137485;19;129028;-51
2022/05/17 15:30:43;;;;;;;3.63;1.30;;;;;;;23.15;30.55;101619.56;16138992;19;129355;-47
2022/05/17 15:36:05;;;;;;;4.68;0.95;;;;;;;23.14;30.43;101625.41;16132404;19;128948;-53
2022/05/17 15:41:27;;;;;;;2.47;0.80;;;;;;;23.13;30.01;101627.34;16137977;19;130405;-50
2022/05/17 15:58:11;;;;;;;5.57;0.73;;;;;;;23.10;30.04;101627.03;16135871;19;129169;-50
2022/05/17 16:03:37;;;;;;;2.70;0.85;;;;;;;23.09;30.41;101630.94;16129381;19;130119;-49
2022/05/17 16:08:59;;;;;;;7.57;1.08;;;;;;;23.05;30.67;101642.59;16134078;19;129135;-48
2022/05/17 16:14:23;;;;;;;1.70;0.63;;;;;;;23.05;30.90;101653.75;16135734;19;129834;-51
2022/05/17 16:19:46;;;;;;;2.47;0.85;;;;;;;23.03;30.86;101642.00;16144168;19;129183;-52
2022/05/17 16:25:08;;;;;;;8.77;1.15;;;;;;;23.04;31.34;101640.91;16149200;19;130785;-50
2022/05/17 16:30:32;;;;;;;3.97;0.93;;;;;;;23.02;31.42;101640.31;16147682;19;130955;-45
2022/05/17 16:35:54;;;;;;;8.30;0.90;;;;;;;23.01;31.57;101641.44;16140346;19;130472;-49
2022/05/17 16:41:16;;;;;;;3.97;0.90;;;;;;;23.00;31.81;101645.34;16147747;19;129807;-49
2022/05/17 16:46:42;;;;;;;5.18;1.08;;;;;;;23.02;32.39;101645.91;16141634;19;130650;-51
2022/05/17 16:52:04;;;;;;;;;;;;;;;23.01;32.79;101641.44;16139123;19;130480;-52
2022/05/17 16:57:26;;;;;;;5.53;0.90;;;;;;;23.08;32.78;101640.41;16141077;19;130668;-49
2022/05/17 17:02:49;;;;;;;4.43;1.00;;;;;;;23.10;33.18;101632.63;16147181;19;129742;-51
2022/05/17 17:08:13;;;;;;;2.33;0.90;;;;;;;23.11;33.22;101634.31;16148827;19;128988;-50
2022/05/17 17:13:34;;;;;;;3.28;1.00;;;;;;;23.12;32.95;101631.25;16145323;19;130246;-52
2022/05/17 17:18:58;;;;;;;3.58;0.90;;;;;;;23.13;33.15;101638.50;16143712;19;129556;-45
2022/05/17 17:24:19;;;;;;;3.65;0.80;;;;;;;23.11;33.19;101645.47;16141090;19;130451;-50
2022/05/17 17:29:41;;;;;;;42.75;1.88;;;;;;;23.12;33.55;101647.16;16144329;19;130900;-51
2022/05/17 17:40:45;;;;;;;5.75;1.02;;;;;;;23.09;33.51;101642.09;16140429;19;129003;-52
2022/05/17 17:46:11;;;;;;;2.85;1.00;;;;;;;23.09;33.77;101639.28;16140184;19;129102;-51
2022/05/17 17:51:32;;;;;;;;;;;;;;;23.03;34.03;101636.44;16132710;19;130017;-52
2022/05/17 17:56:54;;;;;;;10.68;1.65;;;;;;;23.09;34.24;101639.28;16142109;19;130195;-49
2022/05/17 18:02:16;;;;;;;18.15;2.10;;;;;;;23.09;34.63;101642.09;16139346;19;130096;-44
2022/05/17 18:07:38;;;;;;;9.65;1.48;;;;;;;23.08;34.50;101641.22;16134783;19;130218;-47
2022/05/17 18:13:01;;;;;;;3.83;1.27;;;;;;;23.09;34.86;101642.09;16132525;19;129417;-51
2022/05/17 18:18:22;;;;;;;5.13;1.50;;;;;;;23.09;34.79;101650.47;16127882;19;130587;-51
2022/05/17 18:23:45;;;;;;;13.85;1.80;;;;;;;23.10;35.20;101660.53;16131687;19;131380;-48
2022/05/17 18:29:27;;;;;;;7.57;1.08;;;;;;;23.12;35.60;101656.34;16130037;19;130541;-52
2022/05/17 18:34:54;;;;;;;10.52;1.25;;;;;;;23.11;35.32;101662.22;16129519;19;130200;-54
2022/05/17 18:40:21;;;;;;;10.05;1.65;;;;;;;23.11;35.54;101662.22;16125624;19;129628;-55
2022/05/17 18:45:44;;;;;;;3.22;0.93;;;;;;;23.11;35.80;101665.00;16131815;19;131196;-53
2022/05/17 18:51:07;;;;;;;6.22;0.95;;;;;;;23.11;35.92;101670.59;16129004;19;130248;-47
2022/05/17 18:56:28;;;;;;;6.60;0.80;;;;;;;23.11;35.90;101667.78;16124300;19;129908;-51
2022/05/17 19:01:50;;;;;;;4.25;0.82;;;;;;;23.11;35.78;101671.41;16130984;19;130178;-49
2022/05/17 19:18:40;;;;;;;5.03;0.90;;;;;;;23.15;35.85;101692.13;16133394;19;129757;-52
2022/05/17 19:24:06;;;;;;;3.50;0.70;;;;;;;23.14;36.05;101700.78;16135707;19;129495;-48
2022/05/17 19:29:28;;;;;;;3.78;0.90;;;;;;;23.11;35.90;101701.28;16137661;19;129866;-52
2022/05/17 19:34:52;;;;;;;6.65;1.27;;;;;;;23.09;36.21;101692.31;16131275;19;130070;-48
2022/05/17 19:40:16;;;;;;;5.57;0.95;;;;;;;23.08;36.48;101693.41;16126731;19;130499;-46
2022/05/17 19:45:42;;;;;;;5.70;1.02;;;;;;;23.05;35.93;101697.59;16129547;19;129191;-47
2022/05/17 19:51:06;;;;;;;15.25;1.50;;;;;;;23.02;36.62;101715.66;16142253;19;131221;-45
2022/05/17 19:56:28;;;;;;;10.90;0.93;;;;;;;22.97;36.32;101707.25;16143094;19;129912;-45
2022/05/17 20:01:50;;;;;;;4.93;1.08;;;;;;;22.95;36.49;101708.59;16142140;19;130451;-44
2022/05/17 20:07:15;;;;;;;14.68;1.20;;;;;;;22.91;36.68;101708.25;16143202;19;129816;-47
2022/05/17 20:12:36;;;;;;;10.13;0.80;;;;;;;22.87;36.62;101712.66;16141907;19;129634;-43
2022/05/17 20:17:58;;;;;;;7.10;1.40;;;;;;;22.86;36.71;101722.94;16138030;19;130044;-49
2022/05/17 20:23:26;;;;;;;4.43;1.05;;;;;;;22.83;36.42;101719.81;16141844;19;129771;-46
2022/05/17 20:28:51;;;;;;;3.55;0.88;;;;;;;22.81;36.73;101722.03;16140264;19;129491;-45
2022/05/17 20:34:14;;;;;;;3.05;1.05;;;;;;;22.79;36.66;101722.28;16137883;19;130646;-48
2022/05/17 20:39:36;;;;;;;3.15;0.82;;;;;;;22.78;36.82;101719.72;16143446;19;130056;-48
2022/05/17 20:45:04;;;;;;;3.97;0.70;;;;;;;22.76;37.06;101721.97;16141053;19;130566;-48
2022/05/17 20:50:27;;;;;;;3.70;1.15;;;;;;;22.72;36.71;101716.88;16143659;19;129600;-45
2022/05/17 20:55:49;;;;;;;1.05;0.70;;;;;;;22.70;36.84;101719.09;16136292;19;131142;-46
2022/05/17 21:01:11;;;;;;;6.90;0.85;;;;;;;22.68;36.91;101718.47;16135952;19;131422;-46
2022/05/17 21:06:38;;;;;;;3.58;0.80;;;;;;;22.66;37.15;101720.69;16136926;19;130562;-46
2022/05/17 21:12:00;;;;;;;2.97;0.77;;;;;;;22.65;36.90;101727.34;16143249;19;129419;-48
2022/05/17 21:17:24;;;;;;;4.43;0.80;;;;;;;22.63;36.92;101725.94;16138396;19;129461;-45
2022/05/17 21:22:47;;;;;;;2.77;0.90;;;;;;;22.63;36.84;101737.09;16142448;19;129560;-46
2022/05/17 21:28:12;;;;;;;1.70;0.57;;;;;;;22.60;37.04;101730.09;16137062;19;129904;-43
2022/05/17 21:33:33;;;;;;;3.10;0.70;;;;;;;22.58;36.92;101732.28;16129612;19;130189;-46
2022/05/17 21:38:55;;;;;;;2.35;0.70;;;;;;;22.57;37.04;101736.16;16131236;19;129227;-47
2022/05/17 21:44:17;;;;;;;1.85;0.70;;;;;;;22.57;36.98;101727.78;16132556;19;130522;-46
2022/05/17 21:49:39;;;;;;;3.78;1.10;;;;;;;22.54;37.26;101720.78;16135539;19;130143;-47
2022/05/17 21:55:00;;;;;;;1.42;0.70;;;;;;;22.53;36.99;101726.59;16131823;19;129328;-46
2022/05/17 22:00:46;;;;;;;3.80;0.88;;;;;;;22.53;37.53;101721.03;16132385;19;130521;-45
2022/05/17 22:06:08;;;;;;;1.70;0.70;;;;;;;22.51;37.13;101726.03;16123346;19;129585;-46
2022/05/17 22:17:10;;;;;;;2.58;0.82;;;;;;;22.49;37.42;101733.81;16122490;19;130074;-45
2022/05/17 22:22:32;;;;;;;3.35;0.80;;;;;;;22.46;37.42;101732.38;16128375;19;130280;-50
2022/05/17 22:27:54;;;;;;;1.25;0.70;;;;;;;22.46;37.80;101734.31;16133988;19;129557;-48
2022/05/17 22:33:15;;;;;;;2.03;0.90;;;;;;;22.47;37.71;101738.78;16138841;19;128975;-44
2022/05/17 22:38:37;;;;;;;6.68;1.05;;;;;;;22.49;37.70;101739.38;16134135;19;130048;-46
2022/05/17 22:43:59;;;;;;;9.13;1.20;;;;;;;22.51;38.06;101735.22;16130556;19;130653;-48
2022/05/17 22:49:21;;;;;;;7.25;0.93;;;;;;;22.54;37.80;101745.03;16130834;19;130233;-49
2022/05/17 22:54:43;;;;;;;1.52;0.80;;;;;;;22.56;37.55;101740.03;16127012;19;130363;-48
2022/05/17 23:00:06;;;;;;;3.78;1.00;;;;;;;22.58;37.83;101749.00;16129194;19;129744;-50
2022/05/17 23:05:29;;;;;;;8.55;0.95;;;;;;;22.55;37.59;101744.78;16130538;19;129639;-47
2022/05/17 23:10:51;;;;;;;2.25;0.88;;;;;;;22.55;37.87;101741.13;16132362;19;130689;-46
2022/05/17 23:16:13;;;;;;;1.10;0.80;;;;;;;22.53;37.64;101746.13;16127101;19;129850;-45
2022/05/17 23:21:36;;;;;;;3.53;0.80;;;;;;;22.50;37.72;101743.84;16129789;19;129894;-48
2022/05/17 23:32:39;;;;;;;2.75;0.75;;;;;;;22.47;37.86;101752.72;16162596;19;129800;-46
2022/05/17 23:38:01;;;;;;;2.65;0.77;;;;;;;22.44;37.74;101748.50;16155259;19;129769;-45
2022/05/17 23:43:24;;;;;;;1.77;0.75;;;;;;;22.44;37.85;101751.28;16157547;19;129880;-46
2022/05/17 23:48:46;;;;;;;2.55;0.88;;;;;;;22.41;37.75;101752.63;16160091;19;130847;-48
2022/05/17 23:54:08;;;;;;;1.20;0.73;;;;;;;22.39;37.82;101757.63;16158905;19;129005;-44
2022/05/17 23:59:30;;;;;;;3.25;0.73;;;;;;;22.38;37.54;101763.44;16162594;19;130558;-44
